createdAt,value
2018-09-09T00:00:59.260Z,0.00
2018-09-09T00:01:59.034Z,0.00
2018-09-09T00:02:58.994Z,0.00
2018-09-09T00:03:59.047Z,0.00
2018-09-09T00:04:59.056Z,0.00
2018-09-09T00:05:58.991Z,0.00
2018-09-09T00:06:58.972Z,0.00
2018-09-09T00:07:58.977Z,0.00
2018-09-09T00:08:59.094Z,0.00
2018-09-09T00:09:59.109Z,0.00
2018-09-09T00:10:59.011Z,0.00
2018-09-09T00:11:58.978Z,0.00
2018-09-09T00:12:58.974Z,0.00
2018-09-09T00:13:59.250Z,0.00
2018-09-09T00:14:59.072Z,0.00
2018-09-09T00:15:58.993Z,0.00
2018-09-09T00:16:59.110Z,0.00
2018-09-09T00:17:59.042Z,0.00
2018-09-09T00:18:59.040Z,0.00
2018-09-09T00:19:59.120Z,0.00
2018-09-09T00:20:59.126Z,0.00
2018-09-09T00:21:59.122Z,0.00
2018-09-09T00:22:59.053Z,0.00
2018-09-09T00:23:59.120Z,0.00
2018-09-09T00:24:59.123Z,0.00
2018-09-09T00:25:59.124Z,0.00
2018-09-09T00:26:59.122Z,0.00
2018-09-09T00:27:59.120Z,0.00
2018-09-09T00:28:59.117Z,0.00
2018-09-09T00:29:59.009Z,0.00
2018-09-09T00:30:59.034Z,0.00
2018-09-09T00:31:59.009Z,0.00
2018-09-09T00:32:59.127Z,0.00
2018-09-09T00:33:59.130Z,0.00
2018-09-09T00:34:59.029Z,0.00
2018-09-09T00:35:59.077Z,0.00
2018-09-09T00:36:59.125Z,0.00
2018-09-09T00:37:59.133Z,0.00
2018-09-09T00:38:59.061Z,0.00
2018-09-09T00:39:59.066Z,0.00
2018-09-09T00:40:59.135Z,0.00
2018-09-09T00:41:59.077Z,0.00
2018-09-09T00:42:59.135Z,0.00
2018-09-09T00:43:59.064Z,0.00
2018-09-09T00:44:59.137Z,0.00
2018-09-09T00:45:59.139Z,0.00
2018-09-09T00:46:59.140Z,0.00
2018-09-09T00:47:59.129Z,0.00
2018-09-09T00:48:59.124Z,0.00
2018-09-09T00:49:59.041Z,0.00
2018-09-09T00:50:59.132Z,0.00
2018-09-09T00:51:59.109Z,0.00
2018-09-09T00:52:59.018Z,0.00
2018-09-09T00:53:59.043Z,0.00
2018-09-09T00:54:59.066Z,0.00
2018-09-09T00:55:59.135Z,0.00
2018-09-09T00:56:59.135Z,0.00
2018-09-09T00:57:59.147Z,0.00
2018-09-09T00:58:59.100Z,0.00
2018-09-09T00:59:59.149Z,0.00
2018-09-09T01:00:59.148Z,0.00
2018-09-09T01:01:59.082Z,0.00
2018-09-09T01:02:59.077Z,0.00
2018-09-09T01:03:59.150Z,0.00
2018-09-09T01:04:59.152Z,0.00
2018-09-09T01:05:59.078Z,0.00
2018-09-09T01:06:59.157Z,0.00
2018-09-09T01:07:59.082Z,0.00
2018-09-09T01:08:59.101Z,0.00
2018-09-09T01:09:59.153Z,0.00
2018-09-09T01:10:59.085Z,0.00
2018-09-09T01:11:59.088Z,0.00
2018-09-09T01:12:59.095Z,0.00
2018-09-09T01:13:59.158Z,0.00
2018-09-09T01:14:59.158Z,0.00
2018-09-09T01:15:59.088Z,0.00
2018-09-09T01:16:59.164Z,0.00
2018-09-09T01:17:59.029Z,0.00
2018-09-09T01:18:59.098Z,0.00
2018-09-09T01:19:59.147Z,0.00
2018-09-09T01:20:59.087Z,0.00
2018-09-09T01:21:59.146Z,0.00
2018-09-09T01:22:59.084Z,0.00
2018-09-09T01:23:59.126Z,0.00
2018-09-09T01:24:59.063Z,0.00
2018-09-09T01:25:59.149Z,0.00
2018-09-09T01:26:59.150Z,0.00
2018-09-09T01:27:59.159Z,0.00
2018-09-09T01:28:59.094Z,0.00
2018-09-09T01:29:59.105Z,0.00
2018-09-09T01:30:59.154Z,0.00
2018-09-09T01:31:59.025Z,0.00
2018-09-09T01:32:59.073Z,0.00
2018-09-09T01:33:59.155Z,0.00
2018-09-09T01:34:59.036Z,0.00
2018-09-09T01:35:59.158Z,0.00
2018-09-09T01:36:59.158Z,0.00
2018-09-09T01:37:59.175Z,0.00
2018-09-09T01:38:59.138Z,0.00
2018-09-09T01:39:59.176Z,0.00
2018-09-09T01:40:59.119Z,0.00
2018-09-09T01:41:59.340Z,0.00
2018-09-09T01:42:59.177Z,0.00
2018-09-09T01:43:59.179Z,0.00
2018-09-09T01:44:59.192Z,0.00
2018-09-09T01:45:59.182Z,0.00
2018-09-09T01:46:59.182Z,0.00
2018-09-09T01:47:59.180Z,0.00
2018-09-09T01:48:59.187Z,0.00
2018-09-09T01:49:59.141Z,0.00
2018-09-09T01:50:59.204Z,0.00
2018-09-09T01:51:59.207Z,0.00
2018-09-09T01:52:59.184Z,0.00
2018-09-09T01:53:59.187Z,0.00
2018-09-09T01:54:59.066Z,0.00
2018-09-09T01:55:59.113Z,0.00
2018-09-09T01:56:59.118Z,0.00
2018-09-09T01:57:59.199Z,0.00
2018-09-09T01:58:59.088Z,0.00
2018-09-09T01:59:59.092Z,0.00
2018-09-09T02:00:59.091Z,0.00
2018-09-09T02:01:59.040Z,0.00
2018-09-09T02:02:59.086Z,0.00
2018-09-09T02:03:59.138Z,0.00
2018-09-09T02:04:59.138Z,0.00
2018-09-09T02:05:59.042Z,0.00
2018-09-09T02:06:59.047Z,0.00
2018-09-09T02:07:59.147Z,0.00
2018-09-09T02:08:59.125Z,0.00
2018-09-09T02:09:59.143Z,0.00
2018-09-09T02:10:59.181Z,0.00
2018-09-09T02:11:59.226Z,0.00
2018-09-09T02:12:59.128Z,0.00
2018-09-09T02:13:59.102Z,0.00
2018-09-09T02:14:59.087Z,0.00
2018-09-09T02:15:59.131Z,0.00
2018-09-09T02:16:59.139Z,0.00
2018-09-09T02:17:59.132Z,0.00
2018-09-09T02:18:59.136Z,0.00
2018-09-09T02:19:59.139Z,0.00
2018-09-09T02:20:59.203Z,0.00
2018-09-09T02:21:59.206Z,0.00
2018-09-09T02:22:59.134Z,0.00
2018-09-09T02:23:59.162Z,0.00
2018-09-09T02:24:59.177Z,0.00
2018-09-09T02:25:59.296Z,0.00
2018-09-09T02:26:59.157Z,0.00
2018-09-09T02:27:59.209Z,0.00
2018-09-09T02:28:59.212Z,0.00
2018-09-09T02:29:59.215Z,0.00
2018-09-09T02:30:59.144Z,0.00
2018-09-09T02:31:59.138Z,0.00
2018-09-09T02:32:59.218Z,0.00
2018-09-09T02:33:59.215Z,0.00
2018-09-09T02:34:59.214Z,0.00
2018-09-09T02:35:59.142Z,0.00
2018-09-09T02:36:59.215Z,0.00
2018-09-09T02:37:59.145Z,0.00
2018-09-09T02:38:59.152Z,0.00
2018-09-09T02:39:59.223Z,0.00
2018-09-09T02:40:59.288Z,0.00
2018-09-09T02:41:59.226Z,0.00
2018-09-09T02:42:59.166Z,0.00
2018-09-09T02:43:59.220Z,0.00
2018-09-09T02:44:59.221Z,0.00
2018-09-09T02:45:59.155Z,0.00
2018-09-09T02:46:59.307Z,0.00
2018-09-09T02:47:59.222Z,0.00
2018-09-09T02:48:59.159Z,0.00
2018-09-09T02:49:59.148Z,0.00
2018-09-09T02:50:59.227Z,0.00
2018-09-09T02:51:59.288Z,0.00
2018-09-09T02:52:59.154Z,0.00
2018-09-09T02:53:59.162Z,0.00
2018-09-09T02:54:59.188Z,0.00
2018-09-09T02:55:59.228Z,0.00
2018-09-09T02:56:59.166Z,0.00
2018-09-09T02:57:59.179Z,0.00
2018-09-09T02:58:59.179Z,0.00
2018-09-09T02:59:59.180Z,0.00
2018-09-09T03:00:59.128Z,0.00
2018-09-09T03:01:59.134Z,0.00
2018-09-09T03:02:59.178Z,0.00
2018-09-09T03:03:59.091Z,0.00
2018-09-09T03:04:59.126Z,0.00
2018-09-09T03:05:59.085Z,0.00
2018-09-09T03:06:59.177Z,0.00
2018-09-09T03:07:59.203Z,0.00
2018-09-09T03:08:59.209Z,0.00
2018-09-09T03:09:59.136Z,0.00
2018-09-09T03:10:59.187Z,0.00
2018-09-09T03:11:59.136Z,0.00
2018-09-09T03:12:59.188Z,0.00
2018-09-09T03:13:59.138Z,0.00
2018-09-09T03:14:59.189Z,0.00
2018-09-09T03:15:59.143Z,0.00
2018-09-09T03:16:59.212Z,0.00
2018-09-09T03:17:59.175Z,0.00
2018-09-09T03:18:59.245Z,0.00
2018-09-09T03:19:59.173Z,0.00
2018-09-09T03:20:59.252Z,0.00
2018-09-09T03:21:59.185Z,0.00
2018-09-09T03:22:59.247Z,0.00
2018-09-09T03:23:59.249Z,0.00
2018-09-09T03:24:59.186Z,0.00
2018-09-09T03:25:59.252Z,0.00
2018-09-09T03:26:59.128Z,0.00
2018-09-09T03:27:59.201Z,0.00
2018-09-09T03:28:59.253Z,0.00
2018-09-09T03:29:59.258Z,0.00
2018-09-09T03:30:59.263Z,0.00
2018-09-09T03:31:59.214Z,0.00
2018-09-09T03:32:59.189Z,0.00
2018-09-09T03:33:59.256Z,0.00
2018-09-09T03:34:59.150Z,0.00
2018-09-09T03:35:59.261Z,0.00
2018-09-09T03:36:59.265Z,0.00
2018-09-09T03:37:59.192Z,0.00
2018-09-09T03:38:59.185Z,0.00
2018-09-09T03:39:59.189Z,0.00
2018-09-09T03:40:59.186Z,0.00
2018-09-09T03:41:59.187Z,0.00
2018-09-09T03:42:59.185Z,0.00
2018-09-09T03:43:59.189Z,0.00
2018-09-09T03:44:59.187Z,0.00
2018-09-09T03:45:59.263Z,0.00
2018-09-09T03:46:59.194Z,0.00
2018-09-09T03:47:59.193Z,0.00
2018-09-09T03:48:59.266Z,0.00
2018-09-09T03:49:59.267Z,0.00
2018-09-09T03:50:59.306Z,0.00
2018-09-09T03:51:59.194Z,0.00
2018-09-09T03:52:59.192Z,0.00
2018-09-09T03:53:59.274Z,0.00
2018-09-09T03:54:59.233Z,0.00
2018-09-09T03:55:59.197Z,0.00
2018-09-09T03:56:59.273Z,0.00
2018-09-09T03:57:59.201Z,0.00
2018-09-09T03:58:59.203Z,0.00
2018-09-09T03:59:59.199Z,0.00
2018-09-09T04:00:59.275Z,0.00
2018-09-09T04:01:59.205Z,0.00
2018-09-09T04:02:59.276Z,0.00
2018-09-09T04:03:59.278Z,0.00
2018-09-09T04:04:59.276Z,0.00
2018-09-09T04:05:59.273Z,0.00
2018-09-09T04:06:59.282Z,0.00
2018-09-09T04:07:59.176Z,0.00
2018-09-09T04:08:59.193Z,0.00
2018-09-09T04:09:59.294Z,0.00
2018-09-09T04:10:59.175Z,0.00
2018-09-09T04:11:59.183Z,0.00
2018-09-09T04:12:59.144Z,0.00
2018-09-09T04:13:59.252Z,0.00
2018-09-09T04:14:59.169Z,0.00
2018-09-09T04:15:59.250Z,0.00
2018-09-09T04:16:59.193Z,0.00
2018-09-09T04:17:59.288Z,0.00
2018-09-09T04:18:59.373Z,0.00
2018-09-09T04:19:59.223Z,0.00
2018-09-09T04:20:59.222Z,0.00
2018-09-09T04:21:59.294Z,0.00
2018-09-09T04:22:59.225Z,0.00
2018-09-09T04:23:59.224Z,0.00
2018-09-09T04:24:59.185Z,0.00
2018-09-09T04:25:59.224Z,0.00
2018-09-09T04:26:59.297Z,0.00
2018-09-09T04:27:59.223Z,0.00
2018-09-09T04:28:59.239Z,0.00
2018-09-09T04:29:59.298Z,0.00
2018-09-09T04:30:59.388Z,0.00
2018-09-09T04:31:59.296Z,0.00
2018-09-09T04:32:59.299Z,0.00
2018-09-09T04:33:59.229Z,0.00
2018-09-09T04:34:59.298Z,0.00
2018-09-09T04:35:59.252Z,0.00
2018-09-09T04:36:59.302Z,0.00
2018-09-09T04:37:59.230Z,0.00
2018-09-09T04:38:59.181Z,0.00
2018-09-09T04:39:59.182Z,0.00
2018-09-09T04:40:59.235Z,0.00
2018-09-09T04:41:59.289Z,0.00
2018-09-09T04:42:59.273Z,0.00
2018-09-09T04:43:59.201Z,0.00
2018-09-09T04:44:59.275Z,0.00
2018-09-09T04:45:59.210Z,0.00
2018-09-09T04:46:59.169Z,0.00
2018-09-09T04:47:59.264Z,0.00
2018-09-09T04:48:59.218Z,0.00
2018-09-09T04:49:59.358Z,0.00
2018-09-09T04:50:59.199Z,0.00
2018-09-09T04:51:59.193Z,0.00
2018-09-09T04:52:59.274Z,0.00
2018-09-09T04:53:59.199Z,0.00
2018-09-09T04:54:59.195Z,0.00
2018-09-09T04:55:59.255Z,0.00
2018-09-09T04:56:59.273Z,0.00
2018-09-09T04:57:59.274Z,0.00
2018-09-09T04:58:59.273Z,0.00
2018-09-09T04:59:59.180Z,0.00
2018-09-09T05:00:59.185Z,0.00
2018-09-09T05:01:59.245Z,0.00
2018-09-09T05:02:59.190Z,0.00
2018-09-09T05:03:59.170Z,0.00
2018-09-09T05:04:59.283Z,0.00
2018-09-09T05:05:59.273Z,0.00
2018-09-09T05:06:59.208Z,0.00
2018-09-09T05:07:59.277Z,0.00
2018-09-09T05:08:59.252Z,0.00
2018-09-09T05:09:59.250Z,0.00
2018-09-09T05:10:59.344Z,0.00
2018-09-09T05:11:59.249Z,0.00
2018-09-09T05:12:59.258Z,0.00
2018-09-09T05:13:59.328Z,0.00
2018-09-09T05:14:59.331Z,0.00
2018-09-09T05:15:59.350Z,0.00
2018-09-09T05:16:59.257Z,0.00
2018-09-09T05:17:59.333Z,0.00
2018-09-09T05:18:59.278Z,0.00
2018-09-09T05:19:59.321Z,1.00
2018-09-09T05:20:59.321Z,1.00
2018-09-09T05:21:59.231Z,1.00
2018-09-09T05:22:59.258Z,1.00
2018-09-09T05:23:59.259Z,1.00
2018-09-09T05:24:59.213Z,1.00
2018-09-09T05:25:59.331Z,1.00
2018-09-09T05:26:59.300Z,1.00
2018-09-09T05:27:59.257Z,1.00
2018-09-09T05:28:59.268Z,1.00
2018-09-09T05:29:59.261Z,1.00
2018-09-09T05:30:59.341Z,1.00
2018-09-09T05:31:59.263Z,1.00
2018-09-09T05:32:59.339Z,2.00
2018-09-09T05:33:59.356Z,2.00
2018-09-09T05:34:59.266Z,2.00
2018-09-09T05:35:59.267Z,2.00
2018-09-09T05:36:59.346Z,2.00
2018-09-09T05:37:59.265Z,2.00
2018-09-09T05:38:59.340Z,2.00
2018-09-09T05:39:59.340Z,3.00
2018-09-09T05:40:59.312Z,3.00
2018-09-09T05:41:59.222Z,3.00
2018-09-09T05:42:59.381Z,3.00
2018-09-09T05:43:59.219Z,3.00
2018-09-09T05:44:59.243Z,3.00
2018-09-09T05:45:59.259Z,4.00
2018-09-09T05:46:59.343Z,4.00
2018-09-09T05:47:59.291Z,4.00
2018-09-09T05:48:59.202Z,4.00
2018-09-09T05:49:59.309Z,4.00
2018-09-09T05:50:59.312Z,5.00
2018-09-09T05:51:59.298Z,5.00
2018-09-09T05:52:59.209Z,5.00
2018-09-09T05:53:59.377Z,5.00
2018-09-09T05:54:59.221Z,5.00
2018-09-09T05:55:59.218Z,5.00
2018-09-09T05:56:59.311Z,5.00
2018-09-09T05:57:59.305Z,5.00
2018-09-09T05:58:59.297Z,5.00
2018-09-09T05:59:59.231Z,5.00
2018-09-09T06:00:59.230Z,5.00
2018-09-09T06:01:59.300Z,6.00
2018-09-09T06:02:59.376Z,6.00
2018-09-09T06:03:59.255Z,6.00
2018-09-09T06:04:59.241Z,6.00
2018-09-09T06:05:59.326Z,6.00
2018-09-09T06:06:59.303Z,6.00
2018-09-09T06:07:59.266Z,6.00
2018-09-09T06:08:59.359Z,6.00
2018-09-09T06:09:59.347Z,6.00
2018-09-09T06:10:59.309Z,6.00
2018-09-09T06:11:59.314Z,6.00
2018-09-09T06:12:59.537Z,6.00
2018-09-09T06:13:59.367Z,6.00
2018-09-09T06:14:59.317Z,6.00
2018-09-09T06:15:59.360Z,7.00
2018-09-09T06:16:59.291Z,7.00
2018-09-09T06:17:59.335Z,7.00
2018-09-09T06:18:59.373Z,7.00
2018-09-09T06:19:59.295Z,7.00
2018-09-09T06:20:59.408Z,7.00
2018-09-09T06:21:59.372Z,7.00
2018-09-09T06:22:59.296Z,7.00
2018-09-09T06:23:59.380Z,8.00
2018-09-09T06:24:59.304Z,8.00
2018-09-09T06:25:59.375Z,9.00
2018-09-09T06:26:59.308Z,10.00
2018-09-09T06:27:59.303Z,11.00
2018-09-09T06:28:59.316Z,12.00
2018-09-09T06:29:59.275Z,15.00
2018-09-09T06:30:59.251Z,21.00
2018-09-09T06:31:59.234Z,19.00
2018-09-09T06:32:59.343Z,19.00
2018-09-09T06:33:59.434Z,18.00
2018-09-09T06:34:59.313Z,13.00
2018-09-09T06:35:59.258Z,12.00
2018-09-09T06:36:59.349Z,12.00
2018-09-09T06:37:59.296Z,12.00
2018-09-09T06:38:59.432Z,12.00
2018-09-09T06:39:59.312Z,13.00
2018-09-09T06:40:59.389Z,13.00
2018-09-09T06:41:59.313Z,13.00
2018-09-09T06:42:59.351Z,13.00
2018-09-09T06:43:59.314Z,13.00
2018-09-09T06:44:59.418Z,13.00
2018-09-09T06:45:59.393Z,14.00
2018-09-09T06:46:59.316Z,13.00
2018-09-09T06:47:59.390Z,14.00
2018-09-09T06:48:59.319Z,14.00
2018-09-09T06:49:59.324Z,15.00
2018-09-09T06:50:59.398Z,15.00
2018-09-09T06:51:59.316Z,15.00
2018-09-09T06:52:59.397Z,15.00
2018-09-09T06:53:59.319Z,15.00
2018-09-09T06:54:59.361Z,16.00
2018-09-09T06:55:59.352Z,16.00
2018-09-09T06:56:59.325Z,17.00
2018-09-09T06:57:59.400Z,17.00
2018-09-09T06:58:59.360Z,18.00
2018-09-09T06:59:59.246Z,19.00
2018-09-09T07:00:59.343Z,19.00
2018-09-09T07:01:59.268Z,32.00
2018-09-09T07:02:59.306Z,37.00
2018-09-09T07:03:59.252Z,32.00
2018-09-09T07:04:59.342Z,25.00
2018-09-09T07:05:59.291Z,21.00
2018-09-09T07:06:59.363Z,20.00
2018-09-09T07:07:59.438Z,17.00
2018-09-09T07:08:59.389Z,16.00
2018-09-09T07:09:59.397Z,15.00
2018-09-09T07:10:59.433Z,14.00
2018-09-09T07:11:59.543Z,13.00
2018-09-09T07:12:59.318Z,13.00
2018-09-09T07:13:59.410Z,12.00
2018-09-09T07:14:59.286Z,12.00
2018-09-09T07:15:59.412Z,12.00
2018-09-09T07:16:59.391Z,12.00
2018-09-09T07:17:59.319Z,12.00
2018-09-09T07:18:59.359Z,12.00
2018-09-09T07:19:59.415Z,12.00
2018-09-09T07:20:59.339Z,12.00
2018-09-09T07:21:59.341Z,12.00
2018-09-09T07:22:59.423Z,13.00
2018-09-09T07:23:59.416Z,13.00
2018-09-09T07:24:59.370Z,13.00
2018-09-09T07:25:59.425Z,13.00
2018-09-09T07:26:59.348Z,13.00
2018-09-09T07:27:59.425Z,13.00
2018-09-09T07:28:59.343Z,13.00
2018-09-09T07:29:59.278Z,13.00
2018-09-09T07:30:59.403Z,14.00
2018-09-09T07:31:59.379Z,14.00
2018-09-09T07:32:59.380Z,14.00
2018-09-09T07:33:59.378Z,14.00
2018-09-09T07:34:59.275Z,14.00
2018-09-09T07:35:59.330Z,15.00
2018-09-09T07:36:59.366Z,15.00
2018-09-09T07:37:59.331Z,15.00
2018-09-09T07:38:59.401Z,15.00
2018-09-09T07:39:59.323Z,16.00
2018-09-09T07:40:59.322Z,16.00
2018-09-09T07:41:59.424Z,17.00
2018-09-09T07:42:59.427Z,17.00
2018-09-09T07:43:59.356Z,18.00
2018-09-09T07:44:59.306Z,19.00
2018-09-09T07:45:59.429Z,19.00
2018-09-09T07:46:59.354Z,20.00
2018-09-09T07:47:59.435Z,21.00
2018-09-09T07:48:59.355Z,21.00
2018-09-09T07:49:59.311Z,21.00
2018-09-09T07:50:59.403Z,22.00
2018-09-09T07:51:59.314Z,31.00
2018-09-09T07:52:59.435Z,23.00
2018-09-09T07:53:59.430Z,22.00
2018-09-09T07:54:59.428Z,21.00
2018-09-09T07:55:59.422Z,21.00
2018-09-09T07:56:59.435Z,21.00
2018-09-09T07:57:59.425Z,21.00
2018-09-09T07:58:59.332Z,21.00
2018-09-09T07:59:59.294Z,21.00
2018-09-09T08:00:59.272Z,22.00
2018-09-09T08:01:59.334Z,21.00
2018-09-09T08:02:59.383Z,21.00
2018-09-09T08:03:59.271Z,20.00
2018-09-09T08:04:59.295Z,22.00
2018-09-09T08:05:59.391Z,23.00
2018-09-09T08:06:59.387Z,21.00
2018-09-09T08:07:59.387Z,24.00
2018-09-09T08:08:59.398Z,27.00
2018-09-09T08:09:59.429Z,22.00
2018-09-09T08:10:59.306Z,31.00
2018-09-09T08:11:59.327Z,26.00
2018-09-09T08:12:59.379Z,22.00
2018-09-09T08:13:59.378Z,39.00
2018-09-09T08:14:59.406Z,24.00
2018-09-09T08:15:59.380Z,36.00
2018-09-09T08:16:59.437Z,33.00
2018-09-09T08:17:59.358Z,27.00
2018-09-09T08:18:59.384Z,37.00
2018-09-09T08:19:59.363Z,24.00
2018-09-09T08:20:59.313Z,28.00
2018-09-09T08:21:59.395Z,23.00
2018-09-09T08:22:59.368Z,24.00
2018-09-09T08:23:59.282Z,24.00
2018-09-09T08:24:59.398Z,30.00
2018-09-09T08:25:59.479Z,35.00
2018-09-09T08:26:59.400Z,34.00
2018-09-09T08:27:59.398Z,29.00
2018-09-09T08:28:59.467Z,29.00
2018-09-09T08:29:59.389Z,27.00
2018-09-09T08:30:59.466Z,30.00
2018-09-09T08:31:59.391Z,31.00
2018-09-09T08:32:59.390Z,30.00
2018-09-09T08:33:59.467Z,35.00
2018-09-09T08:34:59.469Z,25.00
2018-09-09T08:35:59.398Z,24.00
2018-09-09T08:36:59.470Z,35.00
2018-09-09T08:37:59.395Z,44.00
2018-09-09T08:38:59.372Z,30.00
2018-09-09T08:39:59.372Z,44.00
2018-09-09T08:40:59.430Z,44.00
2018-09-09T08:41:59.434Z,32.00
2018-09-09T08:42:59.427Z,33.00
2018-09-09T08:43:59.421Z,42.00
2018-09-09T08:44:59.436Z,41.00
2018-09-09T08:45:59.327Z,32.00
2018-09-09T08:46:59.359Z,36.00
2018-09-09T08:47:59.404Z,31.00
2018-09-09T08:48:59.406Z,30.00
2018-09-09T08:49:59.478Z,46.00
2018-09-09T08:50:59.480Z,45.00
2018-09-09T08:51:59.546Z,45.00
2018-09-09T08:52:59.488Z,44.00
2018-09-09T08:53:59.414Z,44.00
2018-09-09T08:54:59.481Z,44.00
2018-09-09T08:55:59.408Z,44.00
2018-09-09T08:56:59.484Z,45.00
2018-09-09T08:57:59.507Z,45.00
2018-09-09T08:58:59.486Z,46.00
2018-09-09T08:59:59.488Z,47.00
2018-09-09T09:00:59.485Z,43.00
2018-09-09T09:01:59.487Z,42.00
2018-09-09T09:02:59.492Z,37.00
2018-09-09T09:03:59.411Z,42.00
2018-09-09T09:04:59.510Z,41.00
2018-09-09T09:05:59.428Z,43.00
2018-09-09T09:06:59.501Z,46.00
2018-09-09T09:07:59.615Z,42.00
2018-09-09T09:08:59.488Z,47.00
2018-09-09T09:09:59.435Z,47.00
2018-09-09T09:10:59.370Z,48.00
2018-09-09T09:11:59.423Z,48.00
2018-09-09T09:12:59.532Z,44.00
2018-09-09T09:13:59.495Z,42.00
2018-09-09T09:14:59.425Z,42.00
2018-09-09T09:15:59.497Z,48.00
2018-09-09T09:16:59.422Z,48.00
2018-09-09T09:17:59.501Z,49.00
2018-09-09T09:18:59.426Z,48.00
2018-09-09T09:19:59.422Z,49.00
2018-09-09T09:20:59.501Z,49.00
2018-09-09T09:21:59.426Z,37.00
2018-09-09T09:22:59.427Z,55.00
2018-09-09T09:23:59.501Z,35.00
2018-09-09T09:24:59.427Z,38.00
2018-09-09T09:25:59.505Z,29.00
2018-09-09T09:26:59.504Z,26.00
2018-09-09T09:27:59.504Z,28.00
2018-09-09T09:28:59.494Z,30.00
2018-09-09T09:29:59.410Z,28.00
2018-09-09T09:30:59.506Z,34.00
2018-09-09T09:31:59.381Z,38.00
2018-09-09T09:32:59.500Z,40.00
2018-09-09T09:33:59.473Z,52.00
2018-09-09T09:34:59.507Z,45.00
2018-09-09T09:35:59.477Z,37.00
2018-09-09T09:36:59.410Z,36.00
2018-09-09T09:37:59.480Z,30.00
2018-09-09T09:38:59.514Z,29.00
2018-09-09T09:39:59.438Z,28.00
2018-09-09T09:40:59.515Z,27.00
2018-09-09T09:41:59.447Z,29.00
2018-09-09T09:42:59.516Z,27.00
2018-09-09T09:43:59.442Z,27.00
2018-09-09T09:44:59.517Z,29.00
2018-09-09T09:45:59.477Z,28.00
2018-09-09T09:46:59.448Z,43.00
2018-09-09T09:47:59.410Z,55.00
2018-09-09T09:48:59.446Z,54.00
2018-09-09T09:49:59.450Z,54.00
2018-09-09T09:50:59.521Z,45.00
2018-09-09T09:51:59.446Z,54.00
2018-09-09T09:52:59.521Z,54.00
2018-09-09T09:53:59.448Z,53.00
2018-09-09T09:54:59.582Z,53.00
2018-09-09T09:55:59.452Z,54.00
2018-09-09T09:56:59.526Z,53.00
2018-09-09T09:57:59.531Z,48.00
2018-09-09T09:58:59.457Z,54.00
2018-09-09T09:59:59.527Z,54.00
2018-09-09T10:00:59.459Z,56.00
2018-09-09T10:01:59.451Z,57.00
2018-09-09T10:02:59.533Z,52.00
2018-09-09T10:04:59.529Z,40.00
2018-09-09T10:05:59.539Z,32.00
2018-09-09T10:06:59.465Z,31.00
2018-09-09T10:07:59.461Z,31.00
2018-09-09T10:08:59.518Z,36.00
2018-09-09T10:09:59.536Z,28.00
2018-09-09T10:10:59.518Z,34.00
2018-09-09T10:11:59.460Z,42.00
2018-09-09T10:12:59.522Z,50.00
2018-09-09T10:13:59.410Z,52.00
2018-09-09T10:14:59.445Z,52.00
2018-09-09T10:15:59.413Z,50.00
2018-09-09T10:16:59.505Z,48.00
2018-09-09T10:17:59.527Z,52.00
2018-09-09T10:18:59.529Z,38.00
2018-09-09T10:19:59.531Z,35.00
2018-09-09T10:20:59.508Z,42.00
2018-09-09T10:21:59.447Z,46.00
2018-09-09T10:22:59.542Z,55.00
2018-09-09T10:23:59.516Z,56.00
2018-09-09T10:24:59.532Z,56.00
2018-09-09T10:25:59.424Z,56.00
2018-09-09T10:26:59.491Z,57.00
2018-09-09T10:27:59.468Z,57.00
2018-09-09T10:28:59.564Z,54.00
2018-09-09T10:29:59.553Z,57.00
2018-09-09T10:30:59.473Z,44.00
2018-09-09T10:31:59.449Z,42.00
2018-09-09T10:32:59.542Z,43.00
2018-09-09T10:33:59.549Z,58.00
2018-09-09T10:34:59.545Z,54.00
2018-09-09T10:35:59.427Z,48.00
2018-09-09T10:36:59.542Z,59.00
2018-09-09T10:37:59.495Z,61.00
2018-09-09T10:38:59.484Z,52.00
2018-09-09T10:39:59.562Z,53.00
2018-09-09T10:40:59.511Z,52.00
2018-09-09T10:41:59.567Z,47.00
2018-09-09T10:43:59.559Z,44.00
2018-09-09T10:44:59.562Z,51.00
2018-09-09T10:45:59.552Z,54.00
2018-09-09T10:46:59.618Z,45.00
2018-09-09T10:47:59.492Z,54.00
2018-09-09T10:48:59.482Z,48.00
2018-09-09T10:49:59.501Z,48.00
2018-09-09T10:50:59.492Z,53.00
2018-09-09T10:51:59.564Z,52.00
2018-09-09T10:52:59.496Z,56.00
2018-09-09T10:53:59.570Z,46.00
2018-09-09T10:54:59.495Z,39.00
2018-09-09T10:55:59.500Z,41.00
2018-09-09T10:56:59.572Z,42.00
2018-09-09T10:57:59.494Z,55.00
2018-09-09T10:58:59.435Z,38.00
2018-09-09T10:59:59.517Z,36.00
2018-09-09T11:00:59.438Z,34.00
2018-09-09T11:01:59.551Z,36.00
2018-09-09T11:02:59.532Z,37.00
2018-09-09T11:03:59.449Z,36.00
2018-09-09T11:04:59.480Z,35.00
2018-09-09T11:05:59.555Z,33.00
2018-09-09T11:06:59.631Z,32.00
2018-09-09T11:07:59.430Z,37.00
2018-09-09T11:08:59.527Z,48.00
2018-09-09T11:09:59.579Z,36.00
2018-09-09T11:10:59.505Z,31.00
2018-09-09T11:11:59.578Z,29.00
2018-09-09T11:12:59.572Z,29.00
2018-09-09T11:13:59.730Z,29.00
2018-09-09T11:14:59.505Z,38.00
2018-09-09T11:15:59.578Z,53.00
2018-09-09T11:16:59.507Z,63.00
2018-09-09T11:17:59.507Z,53.00
2018-09-09T11:18:59.603Z,64.00
2018-09-09T11:19:59.412Z,65.00
2018-09-09T11:20:59.528Z,68.00
2018-09-09T11:21:59.526Z,70.00
2018-09-09T11:22:59.480Z,72.00
2018-09-09T11:23:59.489Z,72.00
2018-09-09T11:24:59.475Z,55.00
2018-09-09T11:25:59.476Z,40.00
2018-09-09T11:26:59.529Z,37.00
2018-09-09T11:27:59.534Z,36.00
2018-09-09T11:28:59.531Z,44.00
2018-09-09T11:29:59.604Z,42.00
2018-09-09T11:30:59.596Z,56.00
2018-09-09T11:31:59.519Z,49.00
2018-09-09T11:32:59.592Z,51.00
2018-09-09T11:33:59.519Z,51.00
2018-09-09T11:34:59.601Z,46.00
2018-09-09T11:35:59.523Z,41.00
2018-09-09T11:36:59.592Z,36.00
2018-09-09T11:37:59.524Z,32.00
2018-09-09T11:38:59.623Z,32.00
2018-09-09T11:39:59.563Z,33.00
2018-09-09T11:40:59.568Z,32.00
2018-09-09T11:41:59.561Z,32.00
2018-09-09T11:42:59.478Z,32.00
2018-09-09T11:43:59.542Z,32.00
2018-09-09T11:44:59.597Z,34.00
2018-09-09T11:45:59.480Z,46.00
2018-09-09T11:46:59.564Z,53.00
2018-09-09T11:47:59.566Z,41.00
2018-09-09T11:48:59.548Z,39.00
2018-09-09T11:49:59.529Z,51.00
2018-09-09T11:50:59.469Z,35.00
2018-09-09T11:51:59.629Z,30.00
2018-09-09T11:52:59.595Z,30.00
2018-09-09T11:53:59.566Z,31.00
2018-09-09T11:54:59.533Z,33.00
2018-09-09T11:55:59.570Z,42.00
2018-09-09T11:56:59.569Z,31.00
2018-09-09T11:57:59.571Z,31.00
2018-09-09T11:58:59.539Z,29.00
2018-09-09T11:59:59.614Z,29.00
2018-09-09T12:00:59.537Z,29.00
2018-09-09T12:01:59.609Z,30.00
2018-09-09T12:02:59.542Z,33.00
2018-09-09T12:03:59.546Z,34.00
2018-09-09T12:04:59.618Z,36.00
2018-09-09T12:05:59.541Z,37.00
2018-09-09T12:06:59.543Z,36.00
2018-09-09T12:07:59.622Z,37.00
2018-09-09T12:08:59.542Z,37.00
2018-09-09T12:09:59.570Z,37.00
2018-09-09T12:10:59.567Z,35.00
2018-09-09T12:11:59.570Z,35.00
2018-09-09T12:12:59.469Z,31.00
2018-09-09T12:13:59.512Z,29.00
2018-09-09T12:14:59.453Z,28.00
2018-09-09T12:15:59.476Z,27.00
2018-09-09T12:16:59.565Z,27.00
2018-09-09T12:17:59.511Z,27.00
2018-09-09T12:18:59.475Z,28.00
2018-09-09T12:19:59.509Z,29.00
2018-09-09T12:20:59.531Z,31.00
2018-09-09T12:21:59.487Z,35.00
2018-09-09T12:22:59.542Z,38.00
2018-09-09T12:23:59.587Z,38.00
2018-09-09T12:24:59.656Z,38.00
2018-09-09T12:25:59.586Z,35.00
2018-09-09T12:26:59.497Z,33.00
2018-09-09T12:27:59.584Z,33.00
2018-09-09T12:28:59.561Z,33.00
2018-09-09T12:29:59.511Z,35.00
2018-09-09T12:30:59.629Z,37.00
2018-09-09T12:31:59.532Z,39.00
2018-09-09T12:32:59.635Z,42.00
2018-09-09T12:33:59.601Z,43.00
2018-09-09T12:34:59.509Z,45.00
2018-09-09T12:35:59.518Z,47.00
2018-09-09T12:36:59.635Z,48.00
2018-09-09T12:37:59.500Z,55.00
2018-09-09T12:38:59.625Z,54.00
2018-09-09T12:39:59.566Z,64.00
2018-09-09T12:40:59.640Z,61.00
2018-09-09T12:41:59.604Z,47.00
2018-09-09T12:42:59.643Z,51.00
2018-09-09T12:43:59.569Z,61.00
2018-09-09T12:44:59.572Z,87.00
2018-09-09T12:45:59.571Z,64.00
2018-09-09T12:46:59.646Z,75.00
2018-09-09T12:47:59.573Z,62.00
2018-09-09T12:48:59.648Z,76.00
2018-09-09T12:49:59.647Z,50.00
2018-09-09T12:50:59.597Z,49.00
2018-09-09T12:51:59.646Z,41.00
2018-09-09T12:52:59.575Z,43.00
2018-09-09T12:53:59.652Z,38.00
2018-09-09T12:54:59.574Z,41.00
2018-09-09T12:55:59.653Z,38.00
2018-09-09T12:56:59.575Z,45.00
2018-09-09T12:57:59.656Z,50.00
2018-09-09T12:58:59.582Z,67.00
2018-09-09T12:59:59.654Z,47.00
2018-09-09T13:00:59.655Z,72.00
2018-09-09T13:01:59.580Z,56.00
2018-09-09T13:02:59.661Z,57.00
2018-09-09T13:03:59.657Z,87.00
2018-09-09T13:04:59.584Z,68.00
2018-09-09T13:05:59.659Z,47.00
2018-09-09T13:06:59.611Z,44.00
2018-09-09T13:07:59.862Z,38.00